¿Dónde queda Templo de Diana en Portugal?

 

Templo de Diana está situado en la región Evora en Portugal!

Buscar el nombre de una ciudad:

Temple Tuthmosis I, Temple Peak, Templewo, Templ (Chrám prátelství), Templeton Acres

Aquí usted encontrará la ubicación de Templo de Diana en un mapa.
Para ver cómo se ve en la actualidad, a continuación hay algunas fotos de la región con cámaras web en línea.
También puede encontrar la distancia a las principales ciudades de la región y para las ciudades en el resto de Portugal.

Todos los lugares del mundo llamados .


¿Dónde queda Templo de Diana en el mapa?




Webcams cerca de Templo de Diana

Comporta: Distrito de − Praia do Carvalhal°.


Comporta: Distrito de − Praia do Carvalhal° - El día
Actuales
Comporta: Distrito de − Praia do Carvalhal° - Actuales

Benavente › North-East: AIrport, METAR: BENAV 180005Z 36004KT 17/14 Q1015.


Benavente › North-East: AIrport, METAR: BENAV 180005Z 36004KT 17/14 Q1015 - El día
Actuales
Benavente › North-East: AIrport, METAR: BENAV 180005Z 36004KT 17/14 Q1015 - Actuales

Abrantes › South-West: Centro Cidade.


Abrantes › South-West: Centro Cidade - El día
Actuales
Abrantes › South-West: Centro Cidade - Actuales

Webcams provided by webcams.travel


Distancias

¿Dónde queda Templo de Diana en relación con otros lugares?

Top 10 ciudades en Evora y la distancia de Templo de Diana.

Ciudad#Poblaciónkmmillas
Évora14585121
Montemor-o-Novo2128542717
Vendas Novas3112485031
Estremoz493494226
Reguengos de Monsaraz572173723
Redondo658453220
Vila Viçosa754844830
Borba845864729
Adaval9-2616
Agua d' Alte10-3220

Top 10 ciudades en Portugal y la distancia de Templo de Diana.

Ciudad # Poblaciónkmmillas
Lisbon151779810867
Porto2249630293182
Amadora317885611773
Braga4121393335208
Setúbal51171098754
Coimbra6106580187116
Queluz710339811974
Funchal8980411046650
Vila Nova de Gaia970810291181
Loures106623011370



Alertas y advertencias en Portugal

Asesoramiento e información sobre viajes y seguridad en Portugal

Con una advertencia de viaje, los turistas pueden ser informados de los riesgos de seguridad durante las vacaciones o de viaje en un país extranjero.Estar informado acerca de los riesgos de secuestro, robo a mano armada, atentados, catástrofes naturales o guerras. No saben qué áreas son seguras en Portugal. Estar alerta, o evitar ciertas áreas cuando está de vacaciones en Portugal.

Alertas y advertencias



Información de viajes Portugal

Información sobre documentos de viaje, solicitudes de visados y el costo de una visa.
Información de Contacto embajadas en Portugal.
Los diferentes tipos de seguro de viaje.

Información de viajes

Info

Estadística y Geografía

Portugal se compone de 15299 ciudades en 20 regiones.

La región Evora tiene 425 ciudades.

¿Dónde queda Templo de Diana en Portugal?